Time;durP1;ratioP1;P1;durP2;ratioP2;P2;SDS_P1;SDS_P2;PMS_P1;PMS_P2;Temp;Humidity;BMP_temperature;BMP_pressure;BME280_temperature;BME280_humidity;BME280_pressure;Samples;Min_cycle;Max_cycle;Signal;HPM_P1;HPM_P2
2021/07/08 00:01:21;;;;;;;;;6.00;4.67;;;;;18.55;51.39;101620.97;6176969;23;45311;-87
2021/07/08 00:03:47;;;;;;;;;8.33;5.00;;;;;18.61;51.24;101626.81;6174776;23;45298;-87
2021/07/08 00:06:12;;;;;;;;;5.67;5.00;;;;;18.60;51.19;101627.75;6177119;23;45194;-86
2021/07/08 00:08:38;;;;;;;;;9.00;6.33;;;;;18.58;51.49;101626.97;6174846;23;47879;-87
2021/07/08 00:11:03;;;;;;;;;7.00;5.00;;;;;18.53;51.16;101622.84;6174540;23;45265;-87
2021/07/08 00:13:30;;;;;;;;;8.00;5.00;;;;;18.51;51.66;101627.31;6176593;23;45141;-87
2021/07/08 00:15:57;;;;;;;;;6.00;5.67;;;;;18.49;51.41;101628.34;6174950;23;45294;-87
2021/07/08 00:18:25;;;;;;;;;7.33;7.00;;;;;18.49;51.89;101631.84;6176533;23;46426;-87
2021/07/08 00:20:51;;;;;;;;;6.00;6.00;;;;;18.45;52.08;101625.03;6174711;23;45286;-87
2021/07/08 00:23:18;;;;;;;;;6.00;5.75;;;;;18.42;52.17;101626.06;6177011;23;44595;-87
2021/07/08 00:25:49;;;;;;;;;6.00;6.00;;;;;18.39;51.88;101628.00;6176727;23;45208;-87
2021/07/08 00:28:15;;;;;;;;;5.33;4.00;;;;;18.33;51.93;101618.66;6174030;23;47134;-87
2021/07/08 00:30:45;;;;;;;;;7.50;6.00;;;;;18.32;52.20;101621.38;6174545;23;45273;-87
2021/07/08 00:33:11;;;;;;;;;7.00;6.25;;;;;18.26;52.13;101619.94;6174851;23;45313;-86
2021/07/08 00:35:37;;;;;;;;;5.50;5.50;;;;;18.23;52.32;101618.31;6174667;23;45442;-86
2021/07/08 00:38:04;;;;;;;;;5.25;5.25;;;;;18.22;52.56;101624.53;6174536;23;46567;-87
2021/07/08 00:40:30;;;;;;;;;8.00;6.00;;;;;18.17;52.46;101626.53;6174891;23;45977;-86
2021/07/08 00:42:56;;;;;;;;;5.75;5.00;;;;;18.12;52.55;101618.91;6176575;23;45357;-87
2021/07/08 00:45:24;;;;;;;;;9.25;6.25;;;;;18.12;52.90;101628.56;6176554;23;45310;-87
2021/07/08 00:47:50;;;;;;;;;5.00;4.67;;;;;18.06;52.67;101624.50;6176278;23;46434;-86
2021/07/08 00:50:19;;;;;;;;;7.33;6.00;;;;;18.07;53.34;101627.97;6174596;23;45496;-87
2021/07/08 00:52:44;;;;;;;;;6.50;6.00;;;;;18.00;52.99;101620.38;6178236;23;45357;-87
2021/07/08 00:55:10;;;;;;;;;5.25;5.00;;;;;17.96;52.95;101626.72;6178765;22;45308;-86
2021/07/08 00:57:40;;;;;;;;;6.50;6.50;;;;;17.95;52.85;101632.09;6177795;22;45995;-87
2021/07/08 01:00:07;;;;;;;;;6.00;6.00;;;;;17.89;53.73;101633.25;6178350;22;45224;-86
2021/07/08 01:02:33;;;;;;;;;5.25;5.25;;;;;17.84;53.18;101630.88;6176633;23;45296;-86
2021/07/08 01:04:59;;;;;;;;;7.33;6.00;;;;;17.82;53.24;101631.91;6178693;23;45508;-86
2021/07/08 01:07:25;;;;;;;;;6.00;6.00;;;;;17.79;53.34;101635.53;6175744;23;47950;-86
2021/07/08 01:09:51;;;;;;;;;9.00;5.00;;;;;17.76;53.20;101635.69;6176445;23;45415;-87
2021/07/08 01:12:17;;;;;;;;;5.25;5.25;;;;;17.70;53.72;101628.09;6176139;23;45393;-87
2021/07/08 01:14:43;;;;;;;;;6.00;5.25;;;;;17.68;54.04;101630.81;6178808;22;45215;-87
2021/07/08 01:17:10;;;;;;;;;7.75;7.00;;;;;17.69;53.93;101634.31;6177711;22;45552;-87
2021/07/08 01:19:39;;;;;;;;;5.50;4.25;;;;;17.66;54.05;101631.81;6178366;22;45216;-87
2021/07/08 01:22:05;;;;;;;;;6.75;6.75;;;;;17.63;54.25;101625.78;6178448;22;45301;-87
2021/07/08 01:24:31;;;;;;;;;8.00;5.75;;;;;17.60;54.11;101617.22;6178621;22;45695;-87
2021/07/08 01:26:58;;;;;;;;;5.33;5.33;;;;;17.62;54.28;101628.50;6177429;22;45323;-87
2021/07/08 01:29:23;;;;;;;;;7.00;7.00;;;;;17.56;54.04;101626.19;6176202;23;45266;-87
2021/07/08 01:31:49;;;;;;;;;5.33;5.00;;;;;17.53;54.29;101616.69;6177734;22;45253;-86
2021/07/08 01:34:14;;;;;;;;;5.67;5.00;;;;;17.51;54.56;101631.69;6178691;23;45278;-87
2021/07/08 01:36:39;;;;;;;;;5.00;5.00;;;;;17.48;54.21;101637.09;6177923;22;45732;-87
2021/07/08 01:39:05;;;;;;;;;6.00;4.33;;;;;17.49;54.28;101642.28;6177742;23;45263;-86
2021/07/08 01:41:31;;;;;;;;;8.00;6.00;;;;;17.48;53.87;101645.00;6178255;22;45297;-87
2021/07/08 01:43:57;;;;;;;;;6.67;5.67;;;;;17.49;54.51;101654.59;6177926;22;45328;-87
2021/07/08 01:46:22;;;;;;;;;3.67;3.67;;;;;17.48;53.98;101658.16;6178186;23;45552;-87
2021/07/08 01:48:48;;;;;;;;;5.00;5.00;;;;;17.45;53.91;101647.81;6177431;22;45362;-87
2021/07/08 01:51:35;;;;;;;;;5.75;4.50;;;;;17.43;54.01;101647.00;6178117;23;45414;-87
2021/07/08 01:54:02;;;;;;;;;5.00;5.00;;;;;17.42;54.51;101653.22;6178198;22;45264;-87
2021/07/08 01:56:27;;;;;;;;;6.75;5.00;;;;;17.43;54.47;101654.91;6177635;22;46023;-87
2021/07/08 01:58:53;;;;;;;;;5.75;5.75;;;;;17.39;54.03;101656.84;6176940;22;45230;-87
2021/07/08 02:01:21;;;;;;;;;4.50;4.25;;;;;17.38;54.60;101663.03;6178154;22;45220;-87
2021/07/08 02:03:46;;;;;;;;;4.00;4.00;;;;;17.35;54.54;101657.91;6178115;23;44657;-87
2021/07/08 02:06:12;;;;;;;;;6.00;4.75;;;;;17.34;54.69;101664.13;6175470;23;47306;-87
2021/07/08 02:08:37;;;;;;;;;8.75;5.50;;;;;17.29;54.43;101658.22;6175870;23;45323;-87
2021/07/08 02:11:08;;;;;;;;;8.75;6.75;;;;;17.28;55.36;101662.66;6175629;23;45387;-87
2021/07/08 02:13:35;;;;;;;;;5.25;5.00;;;;;17.24;54.59;101661.09;6175997;23;45225;-86
2021/07/08 02:16:05;;;;;;;;;3.50;3.50;;;;;17.23;54.92;101662.88;6177417;22;45291;-87
2021/07/08 02:18:31;;;;;;;;;4.75;4.25;;;;;17.18;54.86;101658.78;6177426;23;45289;-86
2021/07/08 02:20:57;;;;;;;;;6.50;5.50;;;;;17.15;54.73;101662.41;6175611;23;45289;-87
2021/07/08 02:23:22;;;;;;;;;7.75;6.00;;;;;17.11;55.18;101660.00;6175970;23;45162;-87
2021/07/08 02:25:48;;;;;;;;;5.50;4.25;;;;;17.08;55.24;101661.84;6175681;23;46018;-87
2021/07/08 02:28:13;;;;;;;;;5.25;5.00;;;;;17.05;55.12;101661.16;6177413;22;45362;-87
2021/07/08 02:30:39;;;;;;;;;7.00;6.00;;;;;17.03;55.41;101669.09;6177189;23;45661;-86
2021/07/08 02:33:04;;;;;;;;;5.50;4.00;;;;;17.01;55.57;101668.31;6177870;23;45227;-87
2021/07/08 02:35:30;;;;;;;;;7.00;6.00;;;;;16.98;55.57;101659.72;6175437;23;46305;-87
2021/07/08 02:37:56;;;;;;;;;5.75;4.75;;;;;17.00;55.67;101660.47;6175256;23;45532;-87
2021/07/08 02:40:25;;;;;;;;;4.00;4.00;;;;;16.95;55.83;101651.03;6177788;22;45272;-87
2021/07/08 02:42:51;;;;;;;;;5.75;5.75;;;;;16.94;55.57;101657.22;6174986;23;45464;-87
2021/07/08 02:45:22;;;;;;;;;8.00;5.00;;;;;16.90;55.62;101647.78;6175369;23;47231;-87
2021/07/08 02:47:48;;;;;;;;;6.25;5.00;;;;;16.92;55.82;101651.19;6177439;22;45610;-87
2021/07/08 02:50:15;;;;;;;;;3.75;3.75;;;;;16.89;55.68;101648.72;6177385;22;45726;-87
2021/07/08 02:52:40;;;;;;;;;6.00;6.00;;;;;16.88;55.48;101648.78;6175459;23;45432;-87
2021/07/08 02:55:06;;;;;;;;;6.50;5.25;;;;;16.86;55.29;101648.88;6177177;22;45822;-87
2021/07/08 02:57:32;;;;;;;;;10.00;5.00;;;;;16.81;55.63;101646.44;6175135;23;44860;-87
2021/07/08 02:59:57;;;;;;;;;7.00;6.00;;;;;16.80;55.55;101638.66;6175228;23;45229;-87
2021/07/08 03:02:22;;;;;;;;;6.75;6.75;;;;;16.78;56.03;101641.34;6177510;22;45264;-87
2021/07/08 03:04:48;;;;;;;;;5.00;5.00;;;;;16.73;56.29;101643.34;6176791;23;45542;-87
2021/07/08 03:07:15;;;;;;;;;9.75;6.50;;;;;16.73;56.04;101650.38;6177011;22;45390;-86
2021/07/08 03:09:40;;;;;;;;;7.75;5.00;;;;;16.70;56.15;101654.00;6175412;23;45338;-87
2021/07/08 03:12:07;;;;;;;;;6.00;5.75;;;;;16.69;56.36;101652.28;6177642;22;45344;-87
2021/07/08 03:14:32;;;;;;;;;5.25;5.25;;;;;16.65;56.23;101654.22;6176117;23;46078;-87
2021/07/08 03:16:58;;;;;;;;;5.00;5.00;;;;;16.63;56.26;101656.06;6175017;23;45393;-87
2021/07/08 03:19:23;;;;;;;;;7.00;6.00;;;;;16.61;56.47;101651.81;6175351;23;45220;-87
2021/07/08 03:21:49;;;;;;;;;5.00;5.00;;;;;16.56;56.50;101644.13;6177451;22;45321;-87
2021/07/08 03:24:14;;;;;;;;;3.75;3.75;;;;;16.55;56.62;101653.81;6176959;22;45404;-87
2021/07/08 03:26:39;;;;;;;;;5.25;5.00;;;;;16.54;56.30;101653.88;6177056;22;45351;-87
2021/07/08 03:29:05;;;;;;;;;4.25;4.25;;;;;16.53;56.39;101663.50;6175351;23;45390;-87
2021/07/08 03:31:30;;;;;;;;;4.50;4.50;;;;;16.51;56.60;101667.13;6177137;23;45241;-87
2021/07/08 03:33:55;;;;;;;;;5.00;5.00;;;;;16.43;56.62;101664.84;6177040;23;45420;-87
2021/07/08 03:36:21;;;;;;;;;5.00;4.50;;;;;16.45;56.53;101675.31;6176970;23;45269;-87
2021/07/08 03:38:46;;;;;;;;;7.00;4.00;;;;;16.39;56.76;101679.91;6177218;22;45522;-87
2021/07/08 03:41:11;;;;;;;;;6.00;5.00;;;;;16.37;56.72;101679.16;6175336;23;45274;-87
2021/07/08 03:43:37;;;;;;;;;4.75;4.75;;;;;16.38;56.92;101678.22;6176726;23;45801;-87
2021/07/08 03:46:02;;;;;;;;;5.00;5.00;;;;;16.37;57.09;101680.91;6174740;23;45263;-87
2021/07/08 03:48:28;;;;;;;;;6.00;5.50;;;;;16.34;56.80;101694.19;6177344;23;45227;-87
2021/07/08 03:50:53;;;;;;;;;6.25;6.00;;;;;16.33;57.22;101697.75;6177333;23;45233;-87
2021/07/08 03:53:18;;;;;;;;;4.00;4.00;;;;;16.32;57.24;101699.50;6176861;23;45597;-87
2021/07/08 03:55:44;;;;;;;;;4.00;4.00;;;;;16.34;57.30;101702.91;6175002;23;45658;-87
2021/07/08 03:58:09;;;;;;;;;5.00;5.00;;;;;16.33;57.25;101703.00;6176235;23;45202;-87
2021/07/08 04:00:38;;;;;;;;;4.00;4.00;;;;;16.29;57.08;101699.63;6177457;23;45319;-87
2021/07/08 04:03:06;;;;;;;;;6.50;6.00;;;;;16.34;57.52;101704.69;6176889;23;45382;-87
2021/07/08 04:05:32;;;;;;;;;5.50;5.00;;;;;16.30;57.55;101698.75;6176860;23;45218;-87
2021/07/08 04:07:58;;;;;;;;;6.75;4.75;;;;;16.34;57.28;101704.69;6176548;23;45230;-86
2021/07/08 04:10:23;;;;;;;;;4.75;4.75;;;;;16.33;57.25;101708.25;6175012;23;45171;-86
2021/07/08 04:12:49;;;;;;;;;6.50;5.00;;;;;16.31;57.42;101703.06;6176837;23;45384;-87
2021/07/08 04:15:14;;;;;;;;;8.25;6.25;;;;;16.35;57.71;101712.53;6174668;23;45905;-87
2021/07/08 04:17:40;;;;;;;;;5.25;4.25;;;;;16.36;57.39;101706.34;6176615;23;45284;-87
2021/07/08 04:20:09;;;;;;;;;7.25;6.00;;;;;16.38;57.28;101704.47;6177226;23;45238;-87
2021/07/08 04:22:34;;;;;;;;;6.25;5.00;;;;;16.35;57.18;101699.38;6176524;23;46535;-87
2021/07/08 04:25:00;;;;;;;;;6.00;5.00;;;;;16.37;57.32;101705.41;6175035;23;45227;-86
2021/07/08 04:27:27;;;;;;;;;5.50;5.50;;;;;16.32;57.28;101694.25;6176700;23;45384;-87
2021/07/08 04:29:52;;;;;;;;;5.00;4.00;;;;;16.35;57.74;101707.25;6178435;22;45237;-86
2021/07/08 04:32:17;;;;;;;;;6.50;5.50;;;;;16.31;57.77;101705.69;6178620;23;46471;-87
2021/07/08 04:34:43;;;;;;;;;4.00;4.00;;;;;16.34;57.75;101715.22;6178633;23;45227;-87
2021/07/08 04:37:09;;;;;;;;;5.75;5.75;;;;;16.35;57.84;101722.16;6176862;23;45266;-87
2021/07/08 04:39:34;;;;;;;;;6.75;5.25;;;;;16.36;57.59;101714.22;6176693;23;45436;-87
2021/07/08 04:41:59;;;;;;;;;5.00;5.00;;;;;16.40;57.61;101714.94;6178573;23;46230;-87
2021/07/08 04:44:25;;;;;;;;;6.25;6.00;;;;;16.45;57.59;101722.59;6176460;23;45258;-87
2021/07/08 04:46:50;;;;;;;;;4.00;4.00;;;;;16.48;57.76;101715.41;6176788;23;45737;-87
2021/07/08 04:49:16;;;;;;;;;7.00;6.25;;;;;16.50;57.77;101720.59;6178944;22;45258;-87
2021/07/08 04:51:41;;;;;;;;;6.00;6.00;;;;;16.53;57.71;101726.56;6176069;23;48044;-87
2021/07/08 04:54:07;;;;;;;;;5.00;5.00;;;;;16.51;57.73;101719.69;6178673;23;45345;-87
2021/07/08 04:56:32;;;;;;;;;5.00;4.25;;;;;16.53;57.59;101723.94;6176667;23;45247;-87
2021/07/08 04:58:58;;;;;;;;;5.75;5.50;;;;;16.54;57.97;101724.81;6178719;22;45297;-86
2021/07/08 05:01:23;;;;;;;;;4.50;4.50;;;;;16.52;57.82;101721.41;6177609;22;45260;-87
2021/07/08 05:03:48;;;;;;;;;8.00;5.25;;;;;16.53;57.81;101729.19;6178454;22;45424;-87
2021/07/08 05:06:14;;;;;;;;;8.75;7.00;;;;;16.51;57.98;101732.81;6176548;23;45710;-87
2021/07/08 05:08:41;;;;;;;;;7.25;6.00;;;;;16.53;58.02;101733.63;6178609;23;45414;-87
2021/07/08 05:11:07;;;;;;;;;8.50;6.00;;;;;16.55;57.89;101737.03;6176372;23;47176;-87
2021/07/08 05:13:33;;;;;;;;;6.00;6.00;;;;;16.56;58.05;101736.09;6177788;22;45281;-87
2021/07/08 05:15:58;;;;;;;;;7.75;7.00;;;;;16.53;58.19;101739.72;6175795;23;45312;-87
2021/07/08 05:18:23;;;;;;;;;6.75;6.00;;;;;16.61;58.30;101751.66;6178815;22;45274;-87
2021/07/08 05:20:49;;;;;;;;;6.75;6.50;;;;;16.62;58.40;101751.56;6178157;23;45241;-87
2021/07/08 05:23:17;;;;;;;;;8.00;6.00;;;;;16.64;58.65;101755.00;6177997;22;45155;-87
2021/07/08 05:25:44;;;;;;;;;8.00;6.00;;;;;16.62;58.24;101751.56;6176215;23;45263;-86
2021/07/08 05:28:11;;;;;;;;;4.25;3.00;;;;;16.67;58.33;101762.72;6176542;23;45484;-87
2021/07/08 05:30:37;;;;;;;;;4.75;4.50;;;;;16.68;58.44;101759.19;6177096;23;45357;-87
2021/07/08 05:33:03;;;;;;;;;8.75;7.00;;;;;16.71;58.40;101766.06;6175752;23;45286;-87
2021/07/08 05:35:28;;;;;;;;;6.00;6.00;;;;;16.72;58.37;101759.91;6178054;23;45174;-87
2021/07/08 05:37:54;;;;;;;;;6.75;6.00;;;;;16.79;58.76;101768.34;6176120;23;45293;-87
2021/07/08 05:40:19;;;;;;;;;6.25;6.00;;;;;16.83;58.34;101767.28;6176001;23;46132;-86
2021/07/08 05:42:45;;;;;;;;;7.25;6.00;;;;;16.94;58.84;101772.06;6176016;23;45313;-87
2021/07/08 05:45:11;;;;;;;;;6.75;5.50;;;;;17.02;58.82;101766.44;6175481;23;45500;-87
2021/07/08 05:47:36;;;;;;;;;8.50;7.00;;;;;17.09;58.44;101763.47;6178362;22;45407;-87
2021/07/08 05:50:04;;;;;;;;;7.50;6.50;;;;;17.14;58.52;101770.28;6175447;23;47029;-87
2021/07/08 05:52:29;;;;;;;;;7.00;7.00;;;;;17.20;58.33;101765.59;6177752;23;45481;-87
2021/07/08 05:54:55;;;;;;;;;8.75;6.25;;;;;17.26;58.20;101771.50;6177921;23;45218;-87
2021/07/08 05:57:21;;;;;;;;;7.25;6.00;;;;;17.28;57.88;101772.28;6178187;22;45625;-86
2021/07/08 05:59:46;;;;;;;;;7.00;6.25;;;;;17.32;57.98;101771.22;6177162;22;45273;-87
2021/07/08 06:02:12;;;;;;;;;7.00;5.50;;;;;17.37;58.16;101779.72;6177386;22;45218;-86
2021/07/08 06:04:38;;;;;;;;;8.25;7.00;;;;;17.40;58.12;101781.38;6176068;23;45281;-86
2021/07/08 06:07:04;;;;;;;;;7.50;7.00;;;;;17.48;57.61;101777.44;6178255;22;45261;-87
2021/07/08 06:09:29;;;;;;;;;6.25;5.25;;;;;17.56;58.11;101776.19;6177610;22;45352;-87
2021/07/08 06:11:55;;;;;;;;;6.00;6.00;;;;;17.57;57.90;101770.88;6175390;23;45386;-87
2021/07/08 06:14:20;;;;;;;;;5.75;5.25;;;;;17.70;58.17;101779.00;6177438;22;45329;-87
2021/07/08 06:16:46;;;;;;;;;7.00;6.00;;;;;17.79;57.73;101771.56;6175748;23;45488;-87
2021/07/08 06:19:11;;;;;;;;;7.00;6.25;;;;;17.88;57.61;101773.75;6177473;22;45928;-87
2021/07/08 06:21:36;;;;;;;;;6.00;6.00;;;;;17.99;58.11;101767.91;6177709;22;45288;-86
2021/07/08 06:24:02;;;;;;;;;7.75;6.25;;;;;18.10;57.50;101776.16;6175255;23;45396;-87
2021/07/08 06:26:28;;;;;;;;;7.25;7.25;;;;;18.19;57.63;101774.81;6177626;23;44689;-87
2021/07/08 06:28:53;;;;;;;;;6.50;6.50;;;;;18.28;57.36;101768.22;6175458;23;46459;-87
2021/07/08 06:31:18;;;;;;;;;7.00;6.00;;;;;18.40;57.81;101777.28;6176701;23;45413;-87
2021/07/08 06:33:44;;;;;;;;;6.00;6.00;;;;;18.46;57.39;101768.22;6175432;23;45372;-87
2021/07/08 06:36:10;;;;;;;;;6.00;6.00;;;;;18.56;56.95;101777.28;6177278;22;45394;-87
2021/07/08 06:38:36;;;;;;;;;9.75;6.50;;;;;18.66;57.25;101790.84;6176510;22;45256;-86
2021/07/08 06:41:01;;;;;;;;;5.25;5.25;;;;;18.72;56.99;101781.75;6176942;23;45384;-87
2021/07/08 06:43:27;;;;;;;;;8.50;7.50;;;;;18.80;56.35;101785.69;6177657;22;45293;-87
2021/07/08 06:45:52;;;;;;;;;5.00;5.00;;;;;18.91;56.60;101793.00;6175335;23;45307;-87
2021/07/08 06:48:17;;;;;;;;;7.00;7.00;;;;;18.98;56.15;101787.41;6177082;23;45523;-87
2021/07/08 06:50:44;;;;;;;;;7.25;5.75;;;;;19.08;56.55;101796.53;6177068;22;45391;-87
2021/07/08 06:53:09;;;;;;;;;5.75;5.00;;;;;19.18;55.91;101792.47;6175427;23;45224;-87
2021/07/08 06:55:36;;;;;;;;;6.50;5.00;;;;;19.24;56.20;101783.34;6175603;23;45241;-87
2021/07/08 06:58:02;;;;;;;;;7.00;5.75;;;;;19.34;55.43;101792.44;6177199;22;45332;-86
2021/07/08 07:00:30;;;;;;;;;6.00;5.50;;;;;19.38;55.46;101792.28;6176533;22;45578;-87
2021/07/08 07:02:58;;;;;;;;;5.50;5.50;;;;;19.48;55.53;101793.44;6173950;23;45601;-87
2021/07/08 07:05:25;;;;;;;;;4.67;4.67;;;;;19.60;55.47;101803.31;6175652;23;45224;-86
2021/07/08 07:07:51;;;;;;;;;9.25;6.25;;;;;19.66;54.83;101799.44;6174781;23;47261;-87
2021/07/08 07:10:17;;;;;;;;;5.00;5.00;;;;;19.74;54.91;101801.66;6176896;23;45262;-87
2021/07/08 07:12:47;;;;;;;;;4.75;4.75;;;;;19.83;54.89;101808.19;6176274;22;45382;-87
2021/07/08 07:15:15;;;;;;;;;4.25;4.25;;;;;19.89;54.89;101808.69;6174519;23;45516;-89
2021/07/08 07:17:41;;;;;;;;;5.00;5.00;;;;;19.93;54.52;101812.00;6176511;23;45302;-87
2021/07/08 07:20:08;;;;;;;;;5.50;4.00;;;;;20.01;54.55;101809.75;6176346;22;45230;-87
2021/07/08 07:22:34;;;;;;;;;6.75;6.00;;;;;20.06;53.97;101801.59;6174533;23;45305;-86
2021/07/08 07:25:00;;;;;;;;;5.00;5.00;;;;;20.11;54.07;101810.09;6175276;23;45348;-87
2021/07/08 07:27:25;;;;;;;;;6.00;5.00;;;;;20.21;53.88;101809.50;6177032;22;45490;-87
2021/07/08 07:29:51;;;;;;;;;4.50;4.50;;;;;20.25;53.81;101803.97;6176162;23;45287;-87
2021/07/08 07:32:16;;;;;;;;;4.33;4.33;;;;;20.28;53.62;101802.94;6176761;23;45296;-87
2021/07/08 07:34:43;;;;;;;;;3.00;3.00;;;;;20.34;53.21;101812.28;6175245;22;45412;-87
2021/07/08 07:37:08;;;;;;;;;6.67;5.00;;;;;20.34;53.11;101810.50;6176837;23;45219;-87
2021/07/08 07:39:34;;;;;;;;;7.67;3.00;;;;;20.36;53.40;101811.25;6176664;23;45261;-87
2021/07/08 07:41:59;;;;;;;;;5.25;5.25;;;;;20.39;53.62;101810.19;6177327;23;45331;-87
2021/07/08 07:44:24;;;;;;;;;5.00;5.00;;;;;20.41;53.17;101808.34;6175101;23;45211;-87
2021/07/08 07:46:50;;;;;;;;;4.00;4.00;;;;;20.47;53.07;101812.38;6176470;22;45919;-88
2021/07/08 07:49:16;;;;;;;;;5.67;5.67;;;;;20.49;53.16;101811.34;6174710;23;45399;-87
2021/07/08 07:51:41;;;;;;;;;5.00;4.67;;;;;20.50;52.87;101810.41;6174870;23;45392;-87
2021/07/08 07:54:07;;;;;;;;;4.00;4.00;;;;;20.53;52.54;101818.16;6175243;23;45366;-87
2021/07/08 07:56:32;;;;;;;;;6.00;4.67;;;;;20.52;53.10;101820.88;6176358;23;45515;-87
2021/07/08 07:58:57;;;;;;;;;4.00;4.00;;;;;20.49;52.30;101821.91;6177046;23;45215;-87
2021/07/08 08:01:23;;;;;;;;;4.75;4.75;;;;;20.41;52.68;101821.56;6176059;23;45527;-87
2021/07/08 08:03:50;;;;;;;;;4.00;4.00;;;;;20.40;52.57;101828.63;6179326;23;45302;-87
2021/07/08 08:09:00;;;;;;;;;5.00;5.00;;;;;20.36;52.31;101821.81;6178814;23;45369;-87
2021/07/08 08:11:25;;;;;;;;;6.25;5.00;;;;;20.33;52.53;101829.09;6178695;22;45511;-87
2021/07/08 08:13:51;;;;;;;;;5.75;4.75;;;;;20.29;53.14;101826.59;6178784;23;45312;-87
2021/07/08 08:16:16;;;;;;;;;4.33;4.00;;;;;20.31;53.28;101829.16;6178382;23;45443;-88
2021/07/08 08:18:42;;;;;;;;;5.00;4.75;;;;;20.33;53.02;101834.38;6178105;23;45332;-87
2021/07/08 08:21:07;;;;;;;;;6.75;4.75;;;;;20.37;53.17;101839.38;6179032;22;45333;-88
2021/07/08 08:23:33;;;;;;;;;5.00;5.00;;;;;20.40;53.01;101835.69;6177060;23;45237;-90
2021/07/08 08:26:00;;;;;;;;;4.00;4.00;;;;;20.39;52.60;101824.28;6176863;23;47631;-88
2021/07/08 08:28:25;;;;;;;;;4.00;4.00;;;;;20.40;52.84;101828.63;6178326;23;45183;-88
2021/07/08 08:30:52;;;;;;;;;3.00;3.00;;;;;20.46;52.30;101830.03;6176344;23;45311;-88
2021/07/08 08:33:18;;;;;;;;;4.33;3.00;;;;;20.49;52.13;101834.28;6179122;22;45395;-89
2021/07/08 08:35:44;;;;;;;;;5.67;4.00;;;;;20.50;52.26;101828.06;6176225;23;46813;-87
2021/07/08 08:38:09;;;;;;;;;4.00;4.00;;;;;20.48;51.75;101829.94;6176413;23;45429;-87
2021/07/08 08:40:37;;;;;;;;;4.67;4.67;;;;;20.49;52.43;101832.50;6176446;23;45302;-87
2021/07/08 08:43:03;;;;;;;;;4.00;3.33;;;;;20.56;52.07;101822.41;6177295;23;45282;-87
2021/07/08 08:45:29;;;;;;;;;5.00;4.00;;;;;20.64;51.80;101840.44;6176760;23;47003;-87
2021/07/08 08:48:03;;;;;;;;;5.00;4.00;;;;;20.65;51.76;101837.69;6178776;23;45206;-87
2021/07/08 08:50:31;;;;;;;;;3.25;3.25;;;;;20.68;52.12;101834.88;6178488;23;45418;-87
2021/07/08 08:52:56;;;;;;;;;5.00;5.00;;;;;20.75;51.88;101834.47;6176991;23;45392;-87
2021/07/08 08:55:22;;;;;;;;;5.33;4.67;;;;;20.77;52.34;101838.72;6176527;23;46812;-86
2021/07/08 08:57:48;;;;;;;;;6.00;4.67;;;;;20.86;51.96;101839.97;6178461;23;45316;-88
2021/07/08 09:00:25;;;;;;;;;5.00;3.67;;;;;20.96;51.62;101841.13;6176865;23;45403;-87
2021/07/08 09:03:01;;;;;;;;;6.00;6.00;;;;;20.99;51.35;101836.56;6176511;23;45355;-87
2021/07/08 09:05:27;;;;;;;;;5.00;2.67;;;;;21.04;51.29;101829.19;6178434;22;46427;-87
2021/07/08 09:08:10;;;;;;;;;6.33;5.33;;;;;21.17;51.49;101846.00;6176576;23;45202;-88
2021/07/08 09:10:36;;;;;;;;;5.25;5.25;;;;;21.22;50.80;101841.25;6176967;23;45363;-87
2021/07/08 09:13:01;;;;;;;;;3.33;2.67;;;;;21.28;50.56;101833.88;6177465;22;45554;-87
2021/07/08 09:15:27;;;;;;;;;4.67;4.00;;;;;21.32;50.31;101840.66;6176453;23;46252;-88
2021/07/08 09:17:52;;;;;;;;;4.50;4.50;;;;;21.37;49.82;101838.56;6177839;22;45249;-87
2021/07/08 09:20:19;;;;;;;;;3.00;3.00;;;;;21.41;50.29;101840.06;6178457;23;45222;-87
2021/07/08 09:22:46;;;;;;;;;3.00;3.00;;;;;21.51;50.54;101837.66;6178437;23;45351;-87
2021/07/08 09:25:21;;;;;;;;;3.33;3.00;;;;;21.64;50.13;101835.06;6177741;23;45376;-88
2021/07/08 09:27:48;;;;;;;;;3.67;3.67;;;;;21.79;49.71;101827.09;6178094;23;45344;-88
2021/07/08 09:30:28;;;;;;;;;4.33;3.67;;;;;21.94;49.43;101831.34;6176404;23;45404;-86
2021/07/08 09:32:54;;;;;;;;;5.67;4.00;;;;;22.00;49.51;101838.88;6178273;22;45229;-87
2021/07/08 09:35:33;;;;;;;;;5.00;5.00;;;;;22.13;49.50;101833.59;6177271;23;46178;-87
2021/07/08 09:38:13;;;;;;;;;3.00;3.00;;;;;22.21;48.15;101829.59;6177431;23;45402;-87
2021/07/08 09:40:40;;;;;;;;;4.00;4.00;;;;;22.15;48.29;101837.00;6176332;23;45335;-87
2021/07/08 09:43:07;;;;;;;;;7.67;5.00;;;;;22.06;47.94;101832.31;6178318;23;44745;-87
2021/07/08 09:45:44;;;;;;;;;3.67;3.67;;;;;22.01;47.30;101837.09;6178052;22;45269;-87
2021/07/08 09:48:20;;;;;;;;;3.00;3.00;;;;;22.00;47.22;101830.09;6175241;23;45384;-87
2021/07/08 09:50:46;;;;;;;;;2.33;2.33;;;;;22.01;47.27;101826.47;6178337;22;45191;-88
2021/07/08 09:53:21;;;;;;;;;2.33;2.33;;;;;22.07;47.34;101823.41;6176044;23;45253;-87
2021/07/08 09:58:27;;;;;;;;;4.00;3.67;;;;;22.34;47.36;101824.28;6177517;23;45538;-87
2021/07/08 10:00:53;;;;;;;;;4.00;4.00;;;;;22.42;47.80;101828.13;6175928;23;45577;-87
2021/07/08 10:03:18;;;;;;;;;2.33;2.33;;;;;22.55;47.50;101828.13;6177491;22;45293;-88
2021/07/08 10:05:44;;;;;;;;;5.50;3.50;;;;;22.72;47.32;101820.78;6177832;22;45554;-87
2021/07/08 10:08:10;;;;;;;;;3.33;1.67;;;;;22.78;45.65;101823.00;6177964;22;45387;-87
2021/07/08 10:10:41;;;;;;;;;1.50;1.50;;;;;22.89;47.03;101824.91;6175876;23;45405;-87
2021/07/08 10:13:08;;;;;;;;;2.33;2.33;;;;;23.02;46.24;101824.00;6177969;22;45296;-87
2021/07/08 10:15:36;;;;;;;;;2.00;2.00;;;;;23.14;46.12;101823.09;6177211;23;46522;-88
2021/07/08 10:18:04;;;;;;;;;2.67;2.67;;;;;23.20;45.20;101825.31;6177407;22;45265;-88
2021/07/08 10:20:30;;;;;;;;;2.00;2.00;;;;;23.21;45.36;101824.38;6175980;23;45234;-88
2021/07/08 10:22:58;;;;;;;;;2.00;2.00;;;;;23.25;45.04;101825.00;6175843;23;45305;-88
2021/07/08 10:25:23;;;;;;;;;2.00;2.00;;;;;23.30;45.68;101828.16;6175194;23;47410;-88
2021/07/08 10:27:51;;;;;;;;;3.67;3.67;;;;;23.39;43.59;101818.69;6175043;23;45306;-87
2021/07/08 10:30:20;;;;;;;;;3.33;3.33;;;;;23.51;44.94;101818.75;6175458;23;45399;-88
2021/07/08 10:32:56;;;;;;;;;3.00;3.00;;;;;23.65;45.08;101818.56;6177678;22;45305;-87
2021/07/08 10:35:44;;;;;;;;;2.67;2.67;;;;;23.86;44.57;101824.06;6177273;22;45561;-87
2021/07/08 10:38:37;;;;;;;;;5.67;4.33;;;;;24.07;44.40;101820.72;6176938;23;45253;-87
2021/07/08 10:41:09;;;;;;;;;3.33;3.33;;;;;24.31;44.03;101824.31;6177742;23;45318;-88
2021/07/08 10:43:40;;;;;;;;;4.33;3.00;;;;;24.36;43.81;101825.66;6177929;22;45240;-87
2021/07/08 10:46:07;;;;;;;;;3.33;3.33;;;;;24.33;43.14;101819.69;6177354;23;45436;-88
2021/07/08 10:48:47;;;;;;;;;5.33;3.00;;;;;24.32;43.07;101824.19;6174888;23;45298;-87
2021/07/08 10:51:28;;;;;;;;;4.00;3.00;;;;;24.35;43.18;101823.09;6177470;23;45333;-88
2021/07/08 10:53:54;;;;;;;;;4.67;3.00;;;;;24.42;43.25;101825.16;6175756;23;45166;-88
2021/07/08 10:56:22;;;;;;;;;3.00;3.00;;;;;24.43;42.73;101820.69;6175435;23;47149;-89
2021/07/08 10:58:54;;;;;;;;;3.00;3.00;;;;;24.44;42.43;101822.38;6174856;23;45539;-88
2021/07/08 11:01:23;;;;;;;;;3.67;2.67;;;;;24.49;42.67;101822.03;6175605;23;45243;-88
2021/07/08 11:03:59;;;;;;;;;2.00;2.00;;;;;24.54;42.36;101819.84;6177229;22;45726;-88
2021/07/08 11:06:26;;;;;;;;;4.00;3.00;;;;;24.64;42.28;101822.63;6177421;23;46443;-88
2021/07/08 11:08:55;;;;;;;;;2.67;2.33;;;;;24.77;42.52;101820.66;6177317;22;45297;-88
2021/07/08 11:11:24;;;;;;;;;3.00;3.00;;;;;24.91;42.99;101824.91;6175005;23;45463;-88
2021/07/08 11:13:51;;;;;;;;;2.00;2.00;;;;;24.97;42.32;101828.06;6175860;23;45350;-88
2021/07/08 11:16:38;;;;;;;;;2.33;2.33;;;;;24.93;42.59;101827.47;6175734;22;46378;-88
2021/07/08 11:19:04;;;;;;;;;3.00;3.00;;;;;24.83;41.73;101827.34;6172310;23;45226;-89
2021/07/08 11:21:51;;;;;;;;;3.00;3.00;;;;;24.67;41.85;101830.38;6174363;22;45249;-89
2021/07/08 11:24:18;;;;;;;;;4.67;3.00;;;;;24.49;42.07;101825.50;6174996;22;45237;-88
2021/07/08 11:26:57;;;;;;;;;3.00;3.00;;;;;24.35;41.79;101825.78;6173292;23;47257;-89
2021/07/08 11:29:35;;;;;;;;;3.67;3.33;;;;;24.20;42.04;101828.63;6173695;22;45435;-91